Sosva, Russia
Current Conditions -  °F | °C
As of 2:00 PM on Saturday 22 Nov 2014 (Local Time) from USHH Reporting Station
Light Snow Light Snow  
Wind Chill: -8°   Ceiling: 500
Heat Index:   Visibility: 1.4mi
Dew Point:   Wind: 11mph
Humidity: 79%   Direction: 80°E
Pressure: 29.77"   Gusts: NA
Location:  63.65°N, 62.1°E
Report Text: USHH 220900Z 08005MPS 2300 -SN OVC005 M14/M17 Q1008 TEMPO 0500+SN VV002 RMK QBB160 QFE752 06////42
Loading
Personal Weather Stations






























Interactive Weather Map New forecast layout! Learn more

10-Day Weather Forecast

Advertisements
Track Severe Weather on mobile